Time;durP1;ratioP1;P1;durP2;ratioP2;P2;SDS_P1;SDS_P2;PMS_P1;PMS_P2;Temp;Humidity;BMP_temperature;BMP_pressure;BME280_temperature;BME280_humidity;BME280_pressure;Samples;Min_cycle;Max_cycle;Signal;HPM_P1;HPM_P2
2024/01/19 00:00:18;;;;;;;11.50;8.17;;;-1.00;99.90;;;;;;5008128;28;20105;-84
2024/01/19 00:02:44;;;;;;;15.07;7.90;;;-0.90;99.90;;;;;;5007110;28;20026;-84
2024/01/19 00:05:09;;;;;;;14.73;8.13;;;-1.00;99.90;;;;;;5006412;28;20056;-84
2024/01/19 00:07:35;;;;;;;12.03;7.20;;;-1.00;99.90;;;;;;5008511;28;20026;-84
2024/01/19 00:10:01;;;;;;;15.53;8.10;;;-0.90;99.90;;;;;;5008892;28;20040;-84
2024/01/19 00:12:27;;;;;;;11.67;7.33;;;-1.00;99.90;;;;;;5007168;28;20173;-85
2024/01/19 00:14:52;;;;;;;10.83;7.37;;;-1.00;99.90;;;;;;5008246;28;20034;-84
2024/01/19 00:17:18;;;;;;;11.50;6.97;;;-1.00;99.90;;;;;;5008169;28;20040;-84
2024/01/19 00:19:44;;;;;;;10.27;6.37;;;-1.00;99.90;;;;;;5007678;28;20048;-83
2024/01/19 00:22:09;;;;;;;12.80;7.73;;;-1.00;99.90;;;;;;5008373;28;20036;-84
2024/01/19 00:24:35;;;;;;;12.83;8.00;;;-1.00;99.90;;;;;;5007108;28;21802;-84
2024/01/19 00:27:00;;;;;;;14.73;7.70;;;-1.00;99.90;;;;;;4989032;28;20115;-84
2024/01/19 00:29:26;;;;;;;16.10;7.67;;;-1.10;99.90;;;;;;5007591;28;20040;-84
2024/01/19 00:31:51;;;;;;;12.47;7.50;;;-1.10;99.90;;;;;;5008146;28;20030;-84
2024/01/19 00:34:17;;;;;;;14.10;7.10;;;-1.10;99.90;;;;;;5007162;28;21111;-84
2024/01/19 00:36:43;;;;;;;12.83;6.93;;;-1.10;99.90;;;;;;5007212;28;20056;-84
2024/01/19 00:39:08;;;;;;;13.80;7.43;;;-1.10;99.90;;;;;;5006216;28;20080;-83
2024/01/19 00:41:34;;;;;;;18.70;7.83;;;-1.10;99.90;;;;;;5006436;28;21461;-84
2024/01/19 00:43:59;;;;;;;14.60;7.73;;;-1.10;99.90;;;;;;5007558;28;20120;-84
2024/01/19 00:46:25;;;;;;;12.90;7.70;;;-1.10;99.90;;;;;;5008182;28;20064;-85
2024/01/19 00:48:51;;;;;;;13.10;7.63;;;-1.10;99.90;;;;;;5007107;28;20029;-84
2024/01/19 00:51:17;;;;;;;14.93;6.67;;;-1.20;99.90;;;;;;5007062;28;20522;-84
2024/01/19 00:53:43;;;;;;;16.80;7.53;;;-1.20;99.90;;;;;;5003202;28;20034;-83
2024/01/19 00:56:09;;;;;;;12.50;8.30;;;-1.20;99.90;;;;;;5006612;28;20045;-85
2024/01/19 00:58:35;;;;;;;11.73;7.17;;;-1.20;99.90;;;;;;5007083;28;20021;-84
2024/01/19 01:01:02;;;;;;;12.83;6.97;;;-1.30;99.90;;;;;;5006828;28;20041;-85
2024/01/19 01:03:28;;;;;;;13.77;7.37;;;-1.30;99.90;;;;;;5006232;28;20109;-83
2024/01/19 01:05:56;;;;;;;9.77;6.63;;;-1.30;99.90;;;;;;5006173;28;20054;-84
2024/01/19 01:08:24;;;;;;;12.87;7.10;;;-1.30;99.90;;;;;;4988464;28;20957;-85
2024/01/19 01:10:49;;;;;;;14.67;7.93;;;-1.30;99.90;;;;;;5007196;28;20030;-84
2024/01/19 01:13:15;;;;;;;11.97;6.70;;;-1.30;99.90;;;;;;5007004;28;20045;-84
2024/01/19 01:15:41;;;;;;;12.27;7.07;;;-1.30;99.90;;;;;;4987366;28;20030;-83
2024/01/19 01:18:06;;;;;;;13.70;6.67;;;-1.30;99.90;;;;;;5006677;28;20030;-83
2024/01/19 01:20:32;;;;;;;12.13;7.00;;;-1.30;99.90;;;;;;5007355;28;20030;-83
2024/01/19 01:22:57;;;;;;;13.60;7.40;;;-1.30;99.90;;;;;;4989458;28;20033;-84
2024/01/19 01:25:23;;;;;;;11.40;7.00;;;-1.30;99.90;;;;;;5006725;28;20073;-84
2024/01/19 01:27:48;;;;;;;11.33;6.90;;;-1.30;99.90;;;;;;5008476;28;20113;-84
2024/01/19 01:30:14;;;;;;;10.67;6.63;;;-1.30;99.90;;;;;;5008882;28;20034;-84
2024/01/19 01:32:41;;;;;;;11.50;6.37;;;-1.30;99.90;;;;;;5007890;28;20086;-84
2024/01/19 01:35:07;;;;;;;12.33;6.43;;;-1.30;99.90;;;;;;5007731;28;20052;-84
2024/01/19 01:37:32;;;;;;;13.93;6.80;;;-1.30;99.90;;;;;;5005598;28;20018;-83
2024/01/19 01:39:58;;;;;;;13.90;6.73;;;-1.30;99.90;;;;;;5006499;28;20026;-84
2024/01/19 01:42:23;;;;;;;10.40;6.63;;;-1.30;99.90;;;;;;5007301;28;20032;-84
2024/01/19 01:44:49;;;;;;;17.07;7.07;;;-1.30;99.90;;;;;;5006061;28;20709;-84
2024/01/19 01:47:15;;;;;;;13.87;6.63;;;-1.30;99.90;;;;;;5006781;28;20866;-84
2024/01/19 01:49:41;;;;;;;12.43;6.53;;;-1.30;99.90;;;;;;5006640;28;20029;-84
2024/01/19 01:52:07;;;;;;;10.70;6.60;;;-1.40;99.90;;;;;;5006856;28;20030;-84
2024/01/19 01:54:33;;;;;;;10.43;6.50;;;-1.30;99.90;;;;;;5006695;28;20033;-84
2024/01/19 01:56:58;;;;;;;15.73;7.13;;;-1.40;99.90;;;;;;4988133;28;20038;-84
2024/01/19 01:59:24;;;;;;;11.57;6.67;;;-1.40;99.90;;;;;;5005806;28;20026;-84
2024/01/19 02:01:49;;;;;;;10.30;6.73;;;-1.30;99.90;;;;;;5005603;28;20096;-83
2024/01/19 02:04:15;;;;;;;13.53;6.37;;;-1.30;99.90;;;;;;5006186;28;20041;-84
2024/01/19 02:06:41;;;;;;;14.00;7.20;;;-1.30;99.90;;;;;;5004191;28;20033;-84
2024/01/19 02:09:07;;;;;;;15.30;7.37;;;-1.40;99.90;;;;;;5005395;28;20030;-84
2024/01/19 02:11:33;;;;;;;13.20;7.07;;;-1.40;99.90;;;;;;5006647;28;20042;-84
2024/01/19 02:13:59;;;;;;;12.03;6.07;;;-1.40;99.90;;;;;;5006346;28;20060;-85
2024/01/19 02:16:24;;;;;;;15.07;7.57;;;-1.40;99.90;;;;;;4988283;28;20038;-84
2024/01/19 02:18:51;;;;;;;13.97;7.27;;;-1.40;99.90;;;;;;5005537;28;20022;-84
2024/01/19 02:21:18;;;;;;;15.10;7.07;;;-1.40;99.90;;;;;;5005442;28;20044;-83
2024/01/19 02:23:54;;;;;;;10.13;6.43;;;-1.40;99.90;;;;;;5006353;28;20030;-84
2024/01/19 02:26:21;;;;;;;16.40;6.77;;;-1.40;99.90;;;;;;5004331;28;20795;-84
2024/01/19 02:28:47;;;;;;;15.73;7.27;;;-1.40;99.90;;;;;;5003733;28;20037;-84
2024/01/19 02:31:13;;;;;;;10.87;6.77;;;-1.40;99.90;;;;;;5008921;28;20030;-84
2024/01/19 02:33:38;;;;;;;11.70;7.37;;;-1.40;99.90;;;;;;5010226;28;20117;-84
2024/01/19 02:36:04;;;;;;;14.77;7.57;;;-1.40;99.90;;;;;;4990979;28;20058;-84
2024/01/19 02:38:29;;;;;;;12.90;7.40;;;-1.40;99.90;;;;;;4991975;28;20144;-84
2024/01/19 02:40:55;;;;;;;12.07;6.80;;;-1.50;99.90;;;;;;5009419;28;20042;-84
2024/01/19 02:43:20;;;;;;;13.20;6.90;;;-1.50;99.90;;;;;;5006920;28;20089;-84
2024/01/19 02:45:46;;;;;;;13.07;7.33;;;-1.40;99.90;;;;;;5010445;28;20032;-84
2024/01/19 02:48:12;;;;;;;17.27;8.57;;;-1.40;99.90;;;;;;5007987;28;20044;-84
2024/01/19 02:50:38;;;;;;;14.03;8.43;;;-1.40;99.90;;;;;;5009388;28;20018;-84
2024/01/19 02:53:03;;;;;;;13.93;7.80;;;-1.50;99.90;;;;;;5012375;28;20176;-84
2024/01/19 02:55:29;;;;;;;13.63;7.97;;;-1.50;99.90;;;;;;5010249;28;20025;-84
2024/01/19 02:57:55;;;;;;;14.27;7.60;;;-1.50;99.90;;;;;;5010767;28;20025;-84
2024/01/19 03:00:20;;;;;;;11.10;7.43;;;-1.50;99.90;;;;;;5011342;28;20068;-84
2024/01/19 03:02:46;;;;;;;14.13;8.00;;;-1.50;99.90;;;;;;5010961;28;20030;-84
2024/01/19 03:05:11;;;;;;;13.37;7.90;;;-1.50;99.90;;;;;;5010036;28;20046;-84
2024/01/19 03:07:37;;;;;;;15.13;8.27;;;-1.50;99.90;;;;;;5011838;28;20038;-84
2024/01/19 03:10:03;;;;;;;13.53;7.70;;;-1.50;99.90;;;;;;5010279;28;20022;-84
2024/01/19 03:12:29;;;;;;;21.07;8.33;;;-1.50;99.90;;;;;;5009811;28;20041;-84
2024/01/19 03:14:54;;;;;;;15.27;7.97;;;-1.60;99.90;;;;;;5009539;28;20057;-84
2024/01/19 03:17:20;;;;;;;15.47;8.20;;;-1.60;99.90;;;;;;5010911;28;20034;-85
2024/01/19 03:19:45;;;;;;;15.30;8.87;;;-1.60;99.90;;;;;;5011786;28;20025;-84
2024/01/19 03:22:11;;;;;;;14.57;9.47;;;-1.60;99.90;;;;;;5010733;28;20053;-85
2024/01/19 03:24:36;;;;;;;13.80;8.67;;;-1.60;99.90;;;;;;5009772;28;20049;-84
2024/01/19 03:27:02;;;;;;;14.33;8.23;;;-1.60;99.90;;;;;;5010019;28;20030;-84
2024/01/19 03:29:27;;;;;;;14.13;8.27;;;-1.60;99.90;;;;;;5011074;28;20042;-84
2024/01/19 03:31:53;;;;;;;15.67;8.07;;;-1.60;99.90;;;;;;5011143;28;20036;-85
2024/01/19 03:34:19;;;;;;;18.27;8.90;;;-1.60;99.90;;;;;;5008951;28;20128;-84
2024/01/19 03:36:45;;;;;;;15.93;10.20;;;-1.60;99.90;;;;;;5009816;28;20789;-85
2024/01/19 03:39:13;;;;;;;15.97;8.80;;;-1.60;99.90;;;;;;5009077;28;20556;-84
2024/01/19 03:41:39;;;;;;;18.00;9.17;;;-1.70;99.90;;;;;;5009879;28;20757;-85
2024/01/19 03:44:04;;;;;;;15.93;9.63;;;-1.70;99.90;;;;;;5011339;28;20026;-85
2024/01/19 03:46:30;;;;;;;20.70;9.13;;;-1.60;99.90;;;;;;5009948;28;20482;-86
2024/01/19 03:48:55;;;;;;;14.80;8.57;;;-1.70;99.90;;;;;;5010865;28;20034;-84
2024/01/19 03:51:21;;;;;;;13.67;9.30;;;-1.70;99.90;;;;;;5009735;28;20065;-86
2024/01/19 03:53:46;;;;;;;13.87;8.73;;;-1.70;99.90;;;;;;5009993;28;20026;-84
2024/01/19 03:56:12;;;;;;;17.37;9.70;;;-1.80;99.90;;;;;;5011259;28;20684;-84
2024/01/19 03:58:38;;;;;;;16.90;9.33;;;-1.80;99.90;;;;;;5009734;28;20022;-84
2024/01/19 04:01:05;;;;;;;16.23;9.77;;;-1.80;99.90;;;;;;5010049;28;20030;-85
2024/01/19 04:03:30;;;;;;;17.27;8.90;;;-1.80;99.90;;;;;;5011319;28;20116;-84
2024/01/19 04:05:56;;;;;;;16.30;9.87;;;-1.90;99.90;;;;;;5010281;28;20213;-85
2024/01/19 04:08:21;;;;;;;16.87;10.07;;;-1.90;99.90;;;;;;5010640;28;20081;-85
2024/01/19 04:10:47;;;;;;;21.60;9.67;;;-1.90;99.90;;;;;;5010029;28;20037;-84
2024/01/19 04:13:13;;;;;;;17.37;10.17;;;-1.90;99.90;;;;;;5008911;28;21420;-85
2024/01/19 04:15:38;;;;;;;17.67;10.57;;;-1.90;99.90;;;;;;5009631;28;20048;-84
2024/01/19 04:18:04;;;;;;;21.00;10.27;;;-1.90;99.90;;;;;;5009789;28;20034;-85
2024/01/19 04:20:30;;;;;;;16.00;10.33;;;-1.90;99.90;;;;;;5011294;28;20759;-85
2024/01/19 04:22:55;;;;;;;20.53;10.07;;;-1.90;99.90;;;;;;5010208;28;20036;-85
2024/01/19 04:25:21;;;;;;;17.23;9.37;;;-1.90;99.90;;;;;;5008690;28;20030;-84
2024/01/19 04:27:46;;;;;;;23.37;10.53;;;-1.90;99.90;;;;;;5009281;28;20030;-85
2024/01/19 04:30:12;;;;;;;23.30;11.07;;;-1.90;99.90;;;;;;5008985;28;20235;-85
2024/01/19 04:32:38;;;;;;;15.30;10.00;;;-1.90;99.90;;;;;;5008976;28;20121;-84
2024/01/19 04:35:04;;;;;;;19.20;9.70;;;-1.90;99.90;;;;;;5008821;28;20046;-86
2024/01/19 04:37:30;;;;;;;15.30;9.23;;;-1.90;99.90;;;;;;5008395;28;20505;-86
2024/01/19 04:39:56;;;;;;;22.00;10.47;;;-2.00;99.90;;;;;;5009065;28;20056;-86
2024/01/19 04:42:21;;;;;;;21.47;10.73;;;-2.00;99.90;;;;;;5008991;28;20092;-84
2024/01/19 04:44:46;;;;;;;18.53;10.67;;;-2.00;99.90;;;;;;5009276;28;20026;-85
2024/01/19 04:47:12;;;;;;;18.17;9.93;;;-2.00;99.90;;;;;;5008889;28;20026;-84
2024/01/19 04:49:38;;;;;;;19.03;10.23;;;-2.00;99.90;;;;;;5008355;28;20048;-85
2024/01/19 04:52:03;;;;;;;18.93;9.77;;;-2.00;99.90;;;;;;5007482;28;20060;-84
2024/01/19 04:54:29;;;;;;;18.67;10.93;;;-2.00;99.90;;;;;;5007221;28;20156;-84
2024/01/19 04:56:54;;;;;;;26.83;11.10;;;-2.00;99.90;;;;;;5008599;28;20039;-84
2024/01/19 04:59:20;;;;;;;19.70;10.60;;;-2.00;99.90;;;;;;5007268;28;20780;-86
2024/01/19 05:01:45;;;;;;;21.90;11.20;;;-2.00;99.90;;;;;;5007273;28;20161;-84
2024/01/19 05:04:11;;;;;;;16.33;10.37;;;-2.10;99.90;;;;;;5009047;28;20037;-83
2024/01/19 05:06:36;;;;;;;18.47;10.03;;;-2.10;99.90;;;;;;5007729;28;20041;-85
2024/01/19 05:09:02;;;;;;;22.10;10.83;;;-2.10;99.90;;;;;;5008755;28;21537;-84
2024/01/19 05:11:28;;;;;;;17.83;9.87;;;-2.00;99.90;;;;;;5008421;28;20438;-86
2024/01/19 05:13:53;;;;;;;22.63;10.80;;;-2.10;99.90;;;;;;5006532;28;20034;-84
2024/01/19 05:16:19;;;;;;;21.00;11.13;;;-2.10;99.90;;;;;;5007042;28;20081;-85
2024/01/19 05:18:44;;;;;;;27.37;10.93;;;-2.10;99.90;;;;;;5007400;28;20088;-84
2024/01/19 05:21:11;;;;;;;22.03;11.13;;;-2.10;99.90;;;;;;5009736;28;20026;-84
2024/01/19 05:23:36;;;;;;;19.93;11.10;;;-2.10;99.90;;;;;;5010553;28;20038;-84
2024/01/19 05:26:04;;;;;;;17.63;11.60;;;-2.10;99.90;;;;;;5010430;28;20018;-85
2024/01/19 05:28:36;;;;;;;20.00;11.33;;;-2.10;99.90;;;;;;4990217;28;20029;-84
2024/01/19 05:31:02;;;;;;;20.93;11.33;;;-2.10;99.90;;;;;;5007622;28;20029;-84
2024/01/19 05:33:29;;;;;;;21.43;11.03;;;-2.10;99.90;;;;;;4991456;28;20025;-84
2024/01/19 05:35:54;;;;;;;18.50;10.93;;;-2.10;99.90;;;;;;5004777;28;20038;-86
2024/01/19 05:38:20;;;;;;;21.83;12.23;;;-2.10;99.90;;;;;;5007236;28;20521;-84
2024/01/19 05:40:45;;;;;;;25.17;11.67;;;-2.10;99.90;;;;;;5006310;28;20087;-84
2024/01/19 05:43:11;;;;;;;20.87;11.90;;;-2.10;99.90;;;;;;5007798;28;20038;-85
2024/01/19 05:45:36;;;;;;;21.33;11.77;;;-2.10;99.90;;;;;;5006938;28;20046;-86
2024/01/19 05:48:02;;;;;;;17.40;11.33;;;-2.10;99.90;;;;;;5007921;28;20033;-84
2024/01/19 05:50:27;;;;;;;23.23;12.03;;;-2.10;99.90;;;;;;5007334;28;20076;-85
2024/01/19 05:52:53;;;;;;;21.00;11.67;;;-2.10;99.90;;;;;;5008025;28;20045;-84
2024/01/19 05:55:18;;;;;;;20.10;10.67;;;-2.10;99.90;;;;;;5006688;28;20107;-87
2024/01/19 05:57:44;;;;;;;19.80;12.20;;;-2.10;99.90;;;;;;5007881;28;20144;-85
2024/01/19 06:00:10;;;;;;;18.17;11.30;;;-2.10;99.90;;;;;;5007433;28;20081;-84
2024/01/19 06:02:35;;;;;;;19.20;10.90;;;-2.10;99.90;;;;;;5006734;28;20077;-84
2024/01/19 06:05:01;;;;;;;18.07;11.30;;;-2.10;99.90;;;;;;5011121;28;20042;-85
2024/01/19 06:07:26;;;;;;;19.43;11.90;;;-2.10;99.90;;;;;;5010425;28;20052;-87
2024/01/19 06:09:52;;;;;;;22.67;11.40;;;-2.10;99.90;;;;;;5011392;28;20030;-85
2024/01/19 06:12:17;;;;;;;23.93;11.77;;;-2.10;99.90;;;;;;5011198;28;20950;-85
2024/01/19 06:14:43;;;;;;;20.50;11.27;;;-2.10;99.90;;;;;;5009576;28;21734;-85
2024/01/19 06:17:11;;;;;;;22.00;11.67;;;-2.10;99.90;;;;;;5009968;28;20038;-86
2024/01/19 06:19:37;;;;;;;18.33;11.90;;;-2.20;99.90;;;;;;5010019;28;20026;-86
2024/01/19 06:22:03;;;;;;;20.10;11.07;;;-2.20;99.90;;;;;;5010730;28;20022;-85
2024/01/19 06:24:34;;;;;;;19.20;11.60;;;-2.20;99.90;;;;;;5007602;28;20092;-86
2024/01/19 06:26:59;;;;;;;22.30;10.63;;;-2.20;99.90;;;;;;5008627;28;20766;-84
2024/01/19 06:29:26;;;;;;;18.93;10.10;;;-2.20;99.90;;;;;;5009669;28;20044;-85
2024/01/19 06:31:51;;;;;;;18.87;11.10;;;-2.10;99.90;;;;;;5010328;28;20365;-70
2024/01/19 06:34:18;;;;;;;19.30;10.57;;;-2.20;99.90;;;;;;5010734;28;20084;-87
2024/01/19 06:36:44;;;;;;;20.87;10.20;;;-2.20;99.90;;;;;;5013626;28;20025;-87
2024/01/19 06:39:11;;;;;;;19.23;10.57;;;-2.20;99.90;;;;;;4996000;28;20026;-84
2024/01/19 06:41:44;;;;;;;20.30;11.17;;;-2.20;99.90;;;;;;5014314;28;20033;-84
2024/01/19 06:44:13;;;;;;;20.60;11.40;;;-2.20;99.90;;;;;;5011890;28;20045;-84
2024/01/19 06:46:44;;;;;;;20.60;10.57;;;-2.20;99.90;;;;;;4995393;28;20061;-84
2024/01/19 06:49:10;;;;;;;20.40;11.80;;;-2.20;99.90;;;;;;5008186;28;20072;-83
2024/01/19 06:51:36;;;;;;;20.57;11.47;;;-2.20;99.90;;;;;;5015954;28;20034;-81
2024/01/19 06:54:01;;;;;;;19.10;11.23;;;-2.10;99.90;;;;;;5014495;28;20033;-81
2024/01/19 06:56:27;;;;;;;19.83;10.60;;;-2.10;99.90;;;;;;5015586;28;20057;-81
2024/01/19 06:58:52;;;;;;;18.20;10.90;;;-2.10;99.90;;;;;;5017297;28;20113;-81
2024/01/19 07:01:18;;;;;;;20.20;10.80;;;-2.10;99.90;;;;;;5017001;28;20029;-83
2024/01/19 07:03:44;;;;;;;16.27;10.30;;;-2.00;99.90;;;;;;5016225;28;20097;-81
2024/01/19 07:06:09;;;;;;;18.70;10.27;;;-2.00;99.90;;;;;;5017105;28;20034;-82
2024/01/19 07:08:36;;;;;;;17.87;10.87;;;-2.00;99.90;;;;;;5016588;28;20032;-82
2024/01/19 07:11:01;;;;;;;21.53;9.73;;;-2.00;99.90;;;;;;5017376;28;20085;-82
2024/01/19 07:13:27;;;;;;;17.93;9.63;;;-2.00;99.90;;;;;;5016617;28;20054;-82
2024/01/19 07:15:52;;;;;;;19.20;9.63;;;-2.00;99.90;;;;;;5014743;28;20039;-81
2024/01/19 07:18:18;;;;;;;16.83;10.07;;;-2.00;99.90;;;;;;5015281;28;20101;-82
2024/01/19 07:20:43;;;;;;;19.87;10.80;;;-1.90;99.90;;;;;;5017144;28;21276;-82
2024/01/19 07:23:09;;;;;;;18.77;10.13;;;-1.90;99.90;;;;;;5017196;28;20037;-83
2024/01/19 07:25:35;;;;;;;19.53;10.57;;;-1.90;99.90;;;;;;5014989;28;20034;-81
2024/01/19 07:28:00;;;;;;;19.97;10.97;;;-1.90;99.90;;;;;;5015361;28;20081;-82
2024/01/19 07:30:26;;;;;;;16.93;10.43;;;-1.80;99.90;;;;;;5015516;28;20056;-83
2024/01/19 07:32:51;;;;;;;18.07;10.33;;;-1.80;99.90;;;;;;5013108;28;20036;-81
2024/01/19 07:35:17;;;;;;;17.87;10.33;;;-1.80;99.90;;;;;;5005163;28;20199;-83
2024/01/19 07:37:43;;;;;;;17.83;10.00;;;-1.70;99.90;;;;;;4988679;28;20025;-82
2024/01/19 07:40:08;;;;;;;18.83;9.80;;;-1.70;99.90;;;;;;5009851;28;20030;-82
2024/01/19 07:42:34;;;;;;;16.03;9.37;;;-1.60;99.90;;;;;;5007466;28;20037;-79
2024/01/19 07:44:59;;;;;;;17.67;11.27;;;-1.60;99.90;;;;;;5011016;28;20052;-82
2024/01/19 07:47:25;;;;;;;19.10;10.80;;;-1.60;99.90;;;;;;5019121;28;20050;-83
2024/01/19 07:49:52;;;;;;;22.27;10.77;;;-1.60;99.90;;;;;;5004413;28;20034;-82
2024/01/19 07:52:18;;;;;;;17.87;9.70;;;-1.50;99.90;;;;;;5009841;28;20140;-80
2024/01/19 07:54:45;;;;;;;19.80;9.87;;;-1.50;99.90;;;;;;5015272;28;20448;-83
2024/01/19 07:57:10;;;;;;;16.93;9.90;;;-1.50;99.90;;;;;;5017675;28;20040;-83
2024/01/19 07:59:36;;;;;;;14.83;9.03;;;-1.40;99.90;;;;;;5011946;28;20018;-85
2024/01/19 08:02:03;;;;;;;17.37;8.60;;;-1.40;99.90;;;;;;4994963;28;20056;-82
2024/01/19 08:04:29;;;;;;;12.87;7.93;;;-1.40;99.90;;;;;;5013428;28;20030;-80
2024/01/19 08:06:54;;;;;;;12.77;7.13;;;-1.50;99.90;;;;;;5017073;28;20045;-82
2024/01/19 08:09:20;;;;;;;12.67;7.50;;;-1.50;99.90;;;;;;5017507;28;20094;-83
2024/01/19 08:11:45;;;;;;;11.97;7.40;;;-1.50;99.90;;;;;;5018213;28;20079;-82
2024/01/19 08:14:11;;;;;;;14.03;7.30;;;-1.50;99.90;;;;;;5013987;28;20034;-81
2024/01/19 08:16:36;;;;;;;13.30;7.57;;;-1.50;99.90;;;;;;4997887;28;20038;-81
2024/01/19 08:19:02;;;;;;;12.53;8.30;;;-1.50;99.90;;;;;;5017845;28;20038;-82
2024/01/19 08:21:28;;;;;;;14.37;8.37;;;-1.50;99.90;;;;;;5014900;28;20029;-83
2024/01/19 08:23:53;;;;;;;14.50;7.73;;;-1.50;99.90;;;;;;4999673;28;20045;-83
2024/01/19 08:26:20;;;;;;;16.27;8.07;;;-1.50;99.90;;;;;;5009955;28;20044;-86
2024/01/19 08:28:46;;;;;;;20.37;10.93;;;-1.50;99.90;;;;;;5010366;28;20033;-84
2024/01/19 08:31:12;;;;;;;17.23;8.43;;;-1.50;99.90;;;;;;5013381;28;20037;-84
2024/01/19 08:33:38;;;;;;;14.17;8.33;;;-1.40;99.90;;;;;;5014035;28;20753;-83
2024/01/19 08:36:04;;;;;;;13.63;7.77;;;-1.40;99.90;;;;;;5006927;28;20053;-83
2024/01/19 08:38:29;;;;;;;18.40;9.53;;;-1.30;99.90;;;;;;5004660;28;20018;-85
2024/01/19 08:40:55;;;;;;;17.80;9.40;;;-1.40;99.90;;;;;;5004311;28;20044;-83
2024/01/19 08:43:21;;;;;;;17.23;8.77;;;-1.30;99.90;;;;;;5003605;28;20022;-85
2024/01/19 08:45:46;;;;;;;18.57;9.23;;;-1.30;99.90;;;;;;5004328;28;20052;-78
2024/01/19 08:48:12;;;;;;;14.77;8.50;;;-1.20;99.90;;;;;;5004885;28;20536;-80
2024/01/19 08:50:38;;;;;;;17.57;8.90;;;-1.20;99.90;;;;;;5005424;28;20076;-81
2024/01/19 08:53:04;;;;;;;17.73;8.50;;;-1.10;99.90;;;;;;5008432;28;20040;-81
2024/01/19 08:55:29;;;;;;;16.60;8.50;;;-1.00;99.90;;;;;;5005705;28;20085;-81
2024/01/19 08:58:00;;;;;;;16.93;9.17;;;-1.00;99.90;;;;;;5007083;28;20037;-82
2024/01/19 09:51:08;;;;;;;24.70;10.90;;;0.00;99.90;;;;;;5903590;23;19930;-81
2024/01/19 10:17:55;;;;;;;22.50;11.67;;;0.00;99.90;;;;;;4818477;26;20131;-83
2024/01/19 10:20:19;;;;;;;19.73;12.07;;;0.00;99.90;;;;;;4975210;28;20527;-84
2024/01/19 10:23:31;;;;;;;21.57;12.90;;;0.00;99.90;;;;;;4987670;28;20449;-83
2024/01/19 10:26:50;;;;;;;21.97;12.63;;;0.00;99.90;;;;;;4978666;28;20074;-83
2024/01/19 10:29:27;;;;;;;24.67;12.70;;;0.10;99.90;;;;;;4938481;28;20057;-83
2024/01/19 10:32:34;;;;;;;;;;;;;;;;;;;;;
2024/01/19 10:35:05;;;;;;;20.17;12.43;;;0.20;99.90;;;;;;4987909;28;20039;-83
2024/01/19 10:37:31;;;;;;;21.67;13.23;;;0.20;99.90;;;;;;4989833;28;20047;-84
2024/01/19 10:45:35;;;;;;;24.13;13.13;;;0.40;99.90;;;;;;5798879;23;20385;-84
2024/01/19 11:06:28;;;;;;;;;;;0.10;99.90;;;;;;6065069;23;20026;-81
2024/01/19 11:08:55;;;;;;;24.20;13.63;;;0.10;99.90;;;;;;4996664;28;20736;-81
2024/01/19 11:11:40;;;;;;;25.70;14.37;;;0.10;99.90;;;;;;4999865;28;20030;-82
2024/01/19 11:14:10;;;;;;;27.80;16.03;;;0.10;99.90;;;;;;4984053;28;20042;-82
2024/01/19 11:16:44;;;;;;;27.50;15.20;;;0.00;99.90;;;;;;4998551;28;20094;-82
2024/01/19 11:19:14;;;;;;;26.55;15.70;;;0.00;99.90;;;;;;4999241;28;20038;-82
2024/01/19 11:21:41;;;;;;;24.97;14.27;;;0.00;99.90;;;;;;4999339;28;20037;-81
2024/01/19 11:24:14;;;;;;;26.13;15.60;;;0.00;99.90;;;;;;5001299;28;20030;-82
2024/01/19 11:35:42;;;;;;;28.40;16.07;;;0.00;99.90;;;;;;5020904;28;20042;-80
2024/01/19 11:38:38;;;;;;;28.53;15.57;;;0.00;99.90;;;;;;5023344;28;21326;-79
2024/01/19 11:41:05;;;;;;;24.77;14.57;;;0.00;99.90;;;;;;5021327;28;20038;-80
2024/01/19 11:44:12;;;;;;;23.03;14.07;;;-0.10;99.90;;;;;;5004075;28;20040;-80
2024/01/19 11:46:44;;;;;;;;;;;-0.10;99.90;;;;;;5021621;28;20203;-81
2024/01/19 11:49:29;;;;;;;22.80;13.13;;;-0.10;99.90;;;;;;5018776;28;19918;-81
2024/01/19 11:51:55;;;;;;;25.73;15.33;;;0.00;99.90;;;;;;5001531;28;20038;-81
2024/01/19 11:54:27;;;;;;;22.47;14.30;;;0.00;99.90;;;;;;5021608;28;20049;-81
2024/01/19 11:57:14;;;;;;;22.10;14.07;;;-0.10;99.90;;;;;;5019275;28;20151;-81
2024/01/19 11:59:40;;;;;;;27.53;15.40;;;-0.10;99.90;;;;;;5020444;28;20484;-80
2024/01/19 12:02:06;;;;;;;21.93;14.40;;;0.00;99.90;;;;;;5019386;28;20061;-80
2024/01/19 12:04:35;;;;;;;27.00;15.07;;;0.00;99.90;;;;;;5022853;28;20114;-81
2024/01/19 12:07:06;;;;;;;26.23;16.20;;;-0.10;99.90;;;;;;5019793;28;20045;-80
2024/01/19 12:09:33;;;;;;;29.20;16.33;;;-0.20;99.90;;;;;;5021173;28;20022;-81
2024/01/19 12:11:59;;;;;;;26.57;15.53;;;-0.30;99.90;;;;;;5021799;28;20161;-79
2024/01/19 12:14:24;;;;;;;26.63;15.87;;;-0.30;99.90;;;;;;5020974;28;20096;-81
2024/01/19 12:16:50;;;;;;;26.10;15.30;;;-0.30;99.90;;;;;;5021275;28;20588;-79
2024/01/19 12:19:16;;;;;;;24.27;14.60;;;-0.30;99.90;;;;;;5020321;28;20105;-80
2024/01/19 12:21:42;;;;;;;20.80;12.50;;;-0.30;99.90;;;;;;5021347;28;20021;-81
2024/01/19 12:24:08;;;;;;;18.07;12.30;;;-0.20;99.90;;;;;;5019831;28;20586;-79
2024/01/19 12:26:34;;;;;;;16.77;11.47;;;-0.10;99.90;;;;;;5018900;28;20026;-80
2024/01/19 12:29:00;;;;;;;19.37;12.53;;;0.00;99.90;;;;;;5020836;28;20654;-80
2024/01/19 12:31:36;;;;;;;21.77;11.57;;;0.20;99.90;;;;;;5018129;28;20038;-81
2024/01/19 12:34:12;;;;;;;22.33;12.83;;;0.30;99.90;;;;;;5017635;28;20025;-79
2024/01/19 12:36:38;;;;;;;18.40;11.73;;;0.50;99.90;;;;;;5017582;28;20100;-80
2024/01/19 12:39:06;;;;;;;21.33;12.80;;;0.70;99.90;;;;;;5018114;28;20030;-80
2024/01/19 12:41:33;;;;;;;21.60;13.30;;;0.90;99.90;;;;;;5016727;28;20041;-80
2024/01/19 12:43:59;;;;;;;22.17;13.53;;;1.00;99.90;;;;;;5021122;28;20026;-80
2024/01/19 12:46:25;;;;;;;18.87;13.03;;;1.00;99.90;;;;;;5016038;28;20041;-79
2024/01/19 12:49:02;;;;;;;22.00;12.03;;;1.10;99.90;;;;;;5020120;28;20033;-80
2024/01/19 12:51:28;;;;;;;21.97;13.70;;;1.10;99.90;;;;;;5022502;28;20051;-80
2024/01/19 12:53:55;;;;;;;19.20;12.10;;;1.00;99.90;;;;;;5021557;28;20034;-81
2024/01/19 12:56:31;;;;;;;20.97;14.43;;;0.90;99.90;;;;;;5022360;28;20429;-81
2024/01/19 12:59:26;;;;;;;25.13;15.13;;;0.70;99.90;;;;;;5015610;28;20030;-81
2024/01/19 13:01:51;;;;;;;23.77;15.40;;;0.60;99.90;;;;;;5005057;28;20045;-80
2024/01/19 13:04:17;;;;;;;25.10;15.90;;;0.40;99.90;;;;;;5016050;28;20101;-81
2024/01/19 13:06:46;;;;;;;22.10;14.30;;;0.30;99.90;;;;;;5014389;28;20084;-81
2024/01/19 13:09:16;;;;;;;25.43;14.17;;;0.20;99.90;;;;;;5015933;28;20030;-82
2024/01/19 13:11:42;;;;;;;24.80;15.30;;;0.20;99.90;;;;;;5015983;28;20033;-81
2024/01/19 13:14:08;;;;;;;23.97;16.00;;;0.00;99.90;;;;;;5012648;28;20030;-81
2024/01/19 13:16:51;;;;;;;23.57;14.97;;;0.00;99.90;;;;;;5012551;28;20045;-81
2024/01/19 13:19:17;;;;;;;24.63;14.90;;;0.00;99.90;;;;;;5012333;28;20030;-81
2024/01/19 13:21:43;;;;;;;23.63;15.77;;;-0.10;99.90;;;;;;5013208;28;20528;-82
2024/01/19 13:24:08;;;;;;;25.57;15.10;;;-0.10;99.90;;;;;;5011956;28;20080;-81
2024/01/19 13:26:34;;;;;;;24.20;14.63;;;-0.20;99.90;;;;;;5011882;28;20393;-81
2024/01/19 13:29:00;;;;;;;28.03;16.00;;;-0.30;99.90;;;;;;5011892;28;20109;-81
2024/01/19 13:31:25;;;;;;;23.83;15.43;;;-0.40;99.90;;;;;;5011724;28;20030;-80
2024/01/19 13:33:52;;;;;;;27.00;16.10;;;-0.40;99.90;;;;;;5012848;28;20105;-81
2024/01/19 13:36:18;;;;;;;28.43;15.50;;;-0.30;99.90;;;;;;5010636;28;20065;-80
2024/01/19 13:38:45;;;;;;;24.97;15.97;;;-0.40;99.90;;;;;;5011771;28;20125;-81
2024/01/19 13:41:13;;;;;;;22.80;15.43;;;-0.40;99.90;;;;;;5012364;28;20037;-81
2024/01/19 13:43:44;;;;;;;26.13;16.23;;;-0.50;99.90;;;;;;5012116;28;20034;-85
2024/01/19 13:46:13;;;;;;;25.23;15.33;;;-0.50;99.90;;;;;;5015353;28;21254;-84
2024/01/19 13:48:39;;;;;;;25.80;15.77;;;-0.50;99.90;;;;;;5014536;28;20045;-84
2024/01/19 13:51:05;;;;;;;26.37;16.47;;;-0.60;99.90;;;;;;5013715;28;20021;-84
2024/01/19 13:53:31;;;;;;;27.30;16.27;;;-0.60;99.90;;;;;;4995498;28;20057;-84
2024/01/19 13:55:56;;;;;;;27.47;16.13;;;-0.60;99.90;;;;;;5012947;28;20121;-83
2024/01/19 13:58:22;;;;;;;24.00;16.07;;;-0.60;99.90;;;;;;5012437;28;20684;-84
2024/01/19 14:00:48;;;;;;;24.43;15.57;;;-0.70;99.90;;;;;;5013385;28;20029;-84
2024/01/19 14:03:16;;;;;;;23.73;15.40;;;-0.70;99.90;;;;;;5011847;28;20046;-83
2024/01/19 14:05:44;;;;;;;26.00;17.47;;;-0.60;99.90;;;;;;5017343;28;20038;-83
2024/01/19 14:08:11;;;;;;;28.40;16.33;;;-0.70;99.90;;;;;;5016680;28;20815;-82
2024/01/19 14:10:37;;;;;;;26.37;16.17;;;-0.60;99.90;;;;;;5018446;28;20038;-83
2024/01/19 14:13:03;;;;;;;25.97;16.17;;;-0.50;99.90;;;;;;4998554;28;20026;-83
2024/01/19 14:15:29;;;;;;;29.47;15.60;;;-0.60;99.90;;;;;;5016282;28;20033;-82
2024/01/19 14:17:56;;;;;;;27.33;16.40;;;-0.50;99.90;;;;;;4995850;28;20038;-82
2024/01/19 14:20:21;;;;;;;31.50;16.27;;;-0.50;99.90;;;;;;5015694;28;20045;-83
2024/01/19 14:22:47;;;;;;;24.60;15.30;;;-0.40;99.90;;;;;;5015921;28;20026;-84